This is the latest recevied weather packets stored in our database for station/object HB9CYX-13. If no packets are shown the sender has not sent any weather packets the latest 10 day(s).
| Time | Temp. | Humidity | Pressure | Rain* | Wind** | Luminosity | Snow |
|---|---|---|---|---|---|---|---|
| 1777715079 | 22.78° C | 34% | 1022.2 hPa | 0 mm | - | - | - |
| 1777713634 | 23.89° C | 36% | 1022.3 hPa | 0 mm | - | - | - |
| 1777712893 | 22.22° C | 36% | 1022.7 hPa | 0 mm | - | - | - |
| 1777461693 | 18.89° C | 40% | 1018.7 hPa | 0 mm | - | - | - |
| 1777460944 | 18.89° C | 42% | 1018.8 hPa | 0 mm | - | - | - |
| 1777460195 | 18.89° C | 41% | 1018.9 hPa | 0 mm | - | - | - |
| 1777459448 | 18.33° C | 41% | 1019.1 hPa | 0 mm | - | - | - |
| 1777458699 | 17.22° C | 43% | 1019.4 hPa | 0 mm | - | - | - |
| 1777457952 | 17.22° C | 43% | 1019.4 hPa | 0 mm | - | - | - |
| 1777457204 | 16.67° C | 44% | 1019.5 hPa | 0 mm | - | - | - |
| 1777456457 | 16.11° C | 45% | 1019.7 hPa | 0 mm | - | - | - |
| 1777455710 | 16.11° C | 46% | 1019.8 hPa | 0 mm | - | - | - |
| 1777454959 | 15.56° C | 44% | 1019.6 hPa | 0 mm | - | - | - |
| 1777454212 | 15.56° C | 45% | 1019.7 hPa | 0 mm | - | - | - |
| 1777453464 | 16.67° C | 43% | 1019.4 hPa | 0 mm | - | - | - |
| 1777452716 | 15.56° C | 47% | 1019.7 hPa | 0 mm | - | - | - |
| 1777451970 | 15.56° C | 45% | 1019.7 hPa | 0 mm | - | - | - |
| 1777451223 | 15.56° C | 43% | 1019.7 hPa | 0 mm | - | - | - |
| 1777450475 | 17.78° C | 39% | 1019.1 hPa | 0 mm | - | - | - |
| 1777449727 | 17.22° C | 41% | 1019.2 hPa | 0 mm | - | - | - |
| 1777448979 | 15° C | 46% | 1019.5 hPa | 0 mm | - | - | - |
| 1777448233 | 15° C | 48% | 1019.4 hPa | 0 mm | - | - | - |
| 1777447485 | 15° C | 48% | 1019.3 hPa | 0 mm | - | - | - |
| 1777446737 | 14.44° C | 53% | 1019.3 hPa | 0 mm | - | - | - |
| 1777445989 | 13.89° C | 58% | 1019.4 hPa | 0 mm | - | - | - |
* Rain latest hour (hover to see other rain measurements)
** Current wind speed in m/s (hover to see current wind gust speed)